Time;durP1;ratioP1;P1;durP2;ratioP2;P2;SDS_P1;SDS_P2;PMS_P1;PMS_P2;Temp;Humidity;BMP_temperature;BMP_pressure;BME280_temperature;BME280_humidity;BME280_pressure;Samples;Min_cycle;Max_cycle;Signal;HPM_P1;HPM_P2
2023/03/05 00:01:09;;;;;;;;;22.50;21.75;;;;;-147.17;100.00;-15917.19;5072354;27;51254;-49
2023/03/05 00:03:35;;;;;;;;;23.00;20.75;;;;;-147.17;100.00;-15917.19;5071398;27;51274;-48
2023/03/05 00:06:00;;;;;;;;;23.25;22.25;;;;;-147.17;100.00;-15917.19;5072967;27;51189;-49
2023/03/05 00:08:27;;;;;;;;;28.00;23.25;;;;;-147.17;100.00;-15917.19;5073224;27;53511;-50
2023/03/05 00:11:03;;;;;;;;;28.50;26.75;;;;;-147.17;100.00;-15917.19;5073468;27;51297;-49
2023/03/05 00:13:29;;;;;;;;;28.00;26.25;;;;;-147.17;100.00;-15917.19;5071747;27;51151;-51
2023/03/05 00:15:54;;;;;;;;;26.00;26.00;;;;;-147.17;100.00;-15917.19;5072062;27;51269;-50
2023/03/05 00:18:20;;;;;;;;;20.50;19.25;;;;;-147.17;100.00;-15917.19;5072390;27;51258;-50
2023/03/05 00:20:46;;;;;;;;;35.50;31.50;;;;;-147.17;100.00;-15917.19;5070820;27;51112;-51
2023/03/05 00:23:11;;;;;;;;;32.00;31.00;;;;;-147.17;100.00;-15917.19;5071990;27;51728;-52
2023/03/05 00:25:38;;;;;;;;;29.50;27.50;;;;;-147.17;100.00;-15917.19;5070776;27;51206;-50
2023/03/05 00:28:04;;;;;;;;;31.75;28.50;;;;;-147.17;100.00;-15917.19;5071075;27;51361;-50
2023/03/05 00:30:30;;;;;;;;;27.25;25.25;;;;;-147.17;100.00;-15917.19;5071306;27;51350;-48
2023/03/05 00:32:56;;;;;;;;;30.75;30.50;;;;;-147.17;100.00;-15917.19;5071806;27;51851;-50
2023/03/05 00:35:21;;;;;;;;;27.50;26.25;;;;;-147.17;100.00;-15917.19;5071877;27;51376;-50
2023/03/05 00:37:46;;;;;;;;;21.00;20.00;;;;;-147.17;100.00;-15917.19;5072444;27;51154;-51
2023/03/05 00:40:12;;;;;;;;;34.75;29.00;;;;;-147.17;100.00;-15917.19;5071249;27;51417;-48
2023/03/05 00:42:37;;;;;;;;;35.50;28.50;;;;;-147.17;100.00;-15917.19;5071617;27;51620;-51
2023/03/05 00:45:08;;;;;;;;;21.25;21.00;;;;;-147.17;100.00;-15917.19;5071454;27;53089;-50
2023/03/05 00:47:34;;;;;;;;;24.00;23.25;;;;;-147.17;100.00;-15917.19;5071360;27;51358;-51
2023/03/05 00:50:00;;;;;;;;;22.50;21.75;;;;;-147.17;100.00;-15917.19;5072424;27;51139;-49
2023/03/05 00:52:25;;;;;;;;;25.75;23.25;;;;;-147.17;100.00;-15917.19;5072411;27;52888;-50
2023/03/05 00:54:51;;;;;;;;;23.25;22.25;;;;;-147.17;100.00;-15917.19;5070441;27;51274;-51
2023/03/05 00:57:16;;;;;;;;;25.50;23.25;;;;;-147.17;100.00;-15917.19;5071530;27;52638;-49
2023/03/05 00:59:42;;;;;;;;;27.00;23.25;;;;;-147.17;100.00;-15917.19;5070843;27;51344;-50
2023/03/05 01:02:07;;;;;;;;;20.75;18.75;;;;;-147.17;100.00;-15917.19;5069116;27;52994;-50
2023/03/05 01:04:33;;;;;;;;;18.25;18.00;;;;;-147.17;100.00;-15917.19;5072231;27;51778;-52
2023/03/05 01:06:59;;;;;;;;;23.75;22.75;;;;;-147.17;100.00;-15917.19;5070163;27;51232;-52
2023/03/05 01:09:24;;;;;;;;;18.25;17.75;;;;;-147.17;100.00;-15917.19;5071424;27;51088;-51
2023/03/05 01:11:51;;;;;;;;;17.75;17.00;;;;;-147.17;100.00;-15917.19;5070674;27;51176;-51
2023/03/05 01:14:17;;;;;;;;;22.00;21.75;;;;;-147.17;100.00;-15917.19;5070296;27;51246;-49
2023/03/05 01:16:42;;;;;;;;;19.00;18.25;;;;;-147.17;100.00;-15917.19;5069391;27;51226;-51
2023/03/05 01:19:08;;;;;;;;;17.75;17.00;;;;;-147.17;100.00;-15917.19;5071656;27;53315;-51
2023/03/05 01:21:34;;;;;;;;;25.50;25.50;;;;;-147.17;100.00;-15917.19;5071010;27;51888;-48
2023/03/05 01:24:00;;;;;;;;;21.75;19.75;;;;;-147.17;100.00;-15917.19;5073209;27;51178;-52
2023/03/05 01:26:26;;;;;;;;;20.00;19.50;;;;;-147.17;100.00;-15917.19;5070227;27;51304;-51
2023/03/05 01:28:51;;;;;;;;;21.50;19.75;;;;;-147.17;100.00;-15917.19;5070017;27;51225;-56
2023/03/05 01:31:16;;;;;;;;;21.25;21.00;;;;;-147.17;100.00;-15917.19;5069748;27;52217;-50
2023/03/05 01:33:42;;;;;;;;;17.00;13.25;;;;;-147.17;100.00;-15917.19;5070461;27;51204;-51
2023/03/05 01:36:13;;;;;;;;;23.00;21.75;;;;;-147.17;100.00;-15917.19;5069550;27;51152;-50
2023/03/05 01:38:39;;;;;;;;;26.75;23.75;;;;;-147.17;100.00;-15917.19;5072300;27;52399;-50
2023/03/05 01:41:05;;;;;;;;;27.00;24.25;;;;;-147.17;100.00;-15917.19;5069952;27;53591;-51
2023/03/05 01:43:31;;;;;;;;;21.50;21.25;;;;;-147.17;100.00;-15917.19;5070448;27;51279;-51
2023/03/05 01:46:15;;;;;;;;;22.25;21.00;;;;;-147.17;100.00;-15917.19;5070010;27;51187;-51
2023/03/05 01:48:44;;;;;;;;;26.50;22.00;;;;;-147.17;100.00;-15917.19;5071288;27;51524;-51
2023/03/05 01:51:10;;;;;;;;;22.25;21.50;;;;;-147.17;100.00;-15917.19;5069124;27;53305;-52
2023/03/05 01:53:35;;;;;;;;;23.00;21.25;;;;;-147.17;100.00;-15917.19;5069671;27;53504;-51
2023/03/05 01:56:01;;;;;;;;;18.50;17.75;;;;;-147.17;100.00;-15917.19;5070799;27;51124;-50
2023/03/05 01:58:28;;;;;;;;;26.25;23.00;;;;;-147.17;100.00;-15917.19;5070142;27;51427;-50
2023/03/05 02:00:54;;;;;;;;;23.50;22.25;;;;;-147.17;100.00;-15917.19;5068053;27;51346;-50
2023/03/05 02:03:22;;;;;;;;;19.00;17.25;;;;;-147.17;100.00;-15917.19;5069102;27;51260;-50
2023/03/05 02:05:47;;;;;;;;;25.75;22.75;;;;;-147.17;100.00;-15917.19;5070049;27;51174;-50
2023/03/05 02:08:19;;;;;;;;;22.00;21.50;;;;;-147.17;100.00;-15917.19;5069500;27;51496;-51
2023/03/05 02:10:48;;;;;;;;;22.50;21.50;;;;;-147.17;100.00;-15917.19;5070765;27;51326;-50
2023/03/05 02:13:18;;;;;;;;;25.50;23.25;;;;;-147.17;100.00;-15917.19;5071048;27;51350;-50
2023/03/05 02:15:46;;;;;;;;;24.00;22.00;;;;;-147.17;100.00;-15917.19;5065930;27;51918;-50
2023/03/05 02:18:12;;;;;;;;;25.00;23.00;;;;;-147.17;100.00;-15917.19;5069295;27;51174;-49
2023/03/05 02:20:54;;;;;;;;;36.50;27.75;;;;;-147.17;100.00;-15917.19;5070557;27;52104;-51
2023/03/05 02:23:21;;;;;;;;;22.75;20.00;;;;;-147.17;100.00;-15917.19;5070928;27;53250;-51
2023/03/05 02:25:47;;;;;;;;;32.25;26.25;;;;;-147.17;100.00;-15917.19;5070474;27;51212;-49
2023/03/05 02:28:31;;;;;;;;;23.50;22.75;;;;;-147.17;100.00;-15917.19;5069506;27;51283;-51
2023/03/05 02:30:56;;;;;;;;;26.75;25.75;;;;;-147.17;100.00;-15917.19;5069337;27;51223;-51
2023/03/05 02:33:22;;;;;;;;;27.50;26.00;;;;;-147.17;100.00;-15917.19;5069697;27;51266;-50
2023/03/05 02:35:48;;;;;;;;;31.00;27.50;;;;;-147.17;100.00;-15917.19;5069778;27;51332;-51
2023/03/05 02:38:16;;;;;;;;;23.75;20.50;;;;;-147.17;100.00;-15917.19;5070334;27;51111;-51
2023/03/05 02:40:42;;;;;;;;;25.00;23.75;;;;;-147.17;100.00;-15917.19;5069465;27;53555;-50
2023/03/05 02:43:09;;;;;;;;;25.00;23.50;;;;;-147.17;100.00;-15917.19;5068654;27;51597;-51
2023/03/05 02:45:34;;;;;;;;;26.75;23.00;;;;;-147.17;100.00;-15917.19;5072244;27;51251;-51
2023/03/05 02:47:59;;;;;;;;;26.75;23.00;;;;;-147.17;100.00;-15917.19;5073644;27;51235;-50
2023/03/05 02:50:27;;;;;;;;;26.25;26.00;;;;;-147.17;100.00;-15917.19;5072989;27;60807;-50
2023/03/05 02:52:53;;;;;;;;;26.25;25.75;;;;;-147.17;100.00;-15917.19;5075312;27;51258;-51
2023/03/05 02:55:18;;;;;;;;;34.00;27.50;;;;;-147.17;100.00;-15917.19;5071985;27;51384;-51
2023/03/05 02:57:44;;;;;;;;;29.50;26.75;;;;;-147.17;100.00;-15917.19;5073871;27;51391;-53
2023/03/05 03:00:10;;;;;;;;;26.75;25.50;;;;;-147.17;100.00;-15917.19;5071913;27;51290;-57
2023/03/05 03:02:35;;;;;;;;;22.75;20.75;;;;;-147.17;100.00;-15917.19;5073139;27;51228;-53
2023/03/05 03:05:01;;;;;;;;;24.00;23.25;;;;;-147.17;100.00;-15917.19;5072969;27;51340;-52
2023/03/05 03:07:26;;;;;;;;;28.00;26.00;;;;;-147.17;100.00;-15917.19;5072304;27;51184;-52
2023/03/05 03:09:52;;;;;;;;;25.00;24.75;;;;;-147.17;100.00;-15917.19;5071686;27;51975;-53
2023/03/05 03:12:17;;;;;;;;;27.50;25.75;;;;;-147.17;100.00;-15917.19;5073247;27;51124;-52
2023/03/05 03:14:43;;;;;;;;;27.00;23.75;;;;;-147.17;100.00;-15917.19;5073164;27;51258;-52
2023/03/05 03:17:11;;;;;;;;;26.25;26.00;;;;;-147.17;100.00;-15917.19;5070764;27;51359;-51
2023/03/05 03:19:37;;;;;;;;;32.25;29.00;;;;;-147.17;100.00;-15917.19;5071452;27;53488;-51
2023/03/05 03:22:03;;;;;;;;;25.00;22.75;;;;;-147.17;100.00;-15917.19;5072476;27;51219;-53
2023/03/05 03:24:30;;;;;;;;;27.75;24.00;;;;;-147.17;100.00;-15917.19;5072914;27;51440;-50
2023/03/05 03:26:55;;;;;;;;;26.25;23.75;;;;;-147.17;100.00;-15917.19;5071472;27;51491;-49
2023/03/05 03:29:21;;;;;;;;;28.00;21.50;;;;;-147.17;100.00;-15917.19;5071593;27;51803;-51
2023/03/05 03:31:46;;;;;;;;;22.50;21.25;;;;;-147.17;100.00;-15917.19;5072283;27;51850;-49
2023/03/05 03:34:14;;;;;;;;;22.00;20.25;;;;;-147.17;100.00;-15917.19;5070349;27;51382;-51
2023/03/05 03:36:40;;;;;;;;;27.25;25.75;;;;;-147.17;100.00;-15917.19;5072950;27;51158;-50
2023/03/05 03:39:08;;;;;;;;;21.50;21.25;;;;;-147.17;100.00;-15917.19;5069895;27;52586;-52
2023/03/05 03:41:34;;;;;;;;;26.25;24.75;;;;;-147.17;100.00;-15917.19;5071736;27;51386;-51
2023/03/05 03:44:01;;;;;;;;;28.75;24.50;;;;;-147.17;100.00;-15917.19;5070804;27;51495;-50
2023/03/05 03:46:26;;;;;;;;;24.50;23.00;;;;;-147.17;100.00;-15917.19;5072818;27;51387;-49
2023/03/05 03:48:52;;;;;;;;;22.75;21.25;;;;;-147.17;100.00;-15917.19;5071913;27;53467;-51
2023/03/05 03:51:17;;;;;;;;;22.50;21.50;;;;;-147.17;100.00;-15917.19;5071698;27;51160;-51
2023/03/05 03:53:42;;;;;;;;;23.25;22.50;;;;;-147.17;100.00;-15917.19;5072432;27;51438;-50
2023/03/05 03:56:08;;;;;;;;;27.50;24.75;;;;;-147.17;100.00;-15917.19;5070081;27;51162;-51
2023/03/05 03:58:33;;;;;;;;;19.75;18.50;;;;;-147.17;100.00;-15917.19;5071126;27;51798;-51
2023/03/05 04:00:58;;;;;;;;;23.50;21.00;;;;;-147.17;100.00;-15917.19;5072659;27;53200;-51
2023/03/05 04:03:24;;;;;;;;;24.00;21.25;;;;;-147.17;100.00;-15917.19;5071211;27;51202;-50
2023/03/05 04:05:49;;;;;;;;;19.75;18.75;;;;;-147.17;100.00;-15917.19;5073576;27;51326;-51
2023/03/05 04:08:14;;;;;;;;;25.50;21.25;;;;;-147.17;100.00;-15917.19;5071147;27;52470;-51
2023/03/05 04:10:40;;;;;;;;;17.50;17.50;;;;;-147.17;100.00;-15917.19;5072014;27;51436;-50
2023/03/05 04:13:05;;;;;;;;;22.00;20.50;;;;;-147.17;100.00;-15917.19;5071672;27;51290;-50
2023/03/05 04:15:32;;;;;;;;;25.25;22.00;;;;;-147.17;100.00;-15917.19;5072030;27;53421;-50
2023/03/05 04:17:58;;;;;;;;;20.50;18.25;;;;;-147.17;100.00;-15917.19;5072528;27;53204;-51
2023/03/05 04:20:23;;;;;;;;;21.00;19.25;;;;;-147.17;100.00;-15917.19;5071735;27;51313;-50
2023/03/05 04:22:48;;;;;;;;;22.25;19.75;;;;;-147.17;100.00;-15917.19;5073576;27;51153;-49
2023/03/05 04:25:14;;;;;;;;;29.50;25.25;;;;;-147.17;100.00;-15917.19;5072967;27;51254;-50
2023/03/05 04:27:39;;;;;;;;;21.75;20.25;;;;;-147.17;100.00;-15917.19;5070194;27;52483;-51
2023/03/05 04:30:06;;;;;;;;;18.25;16.75;;;;;-147.17;100.00;-15917.19;5073240;27;51039;-52
2023/03/05 04:32:31;;;;;;;;;20.75;19.00;;;;;-147.17;100.00;-15917.19;5070132;27;51332;-49
2023/03/05 04:34:57;;;;;;;;;25.75;22.75;;;;;-147.17;100.00;-15917.19;5068665;27;51131;-49
2023/03/05 04:37:24;;;;;;;;;28.75;22.25;;;;;-147.17;100.00;-15917.19;5072048;27;52185;-49
2023/03/05 04:39:51;;;;;;;;;19.00;18.25;;;;;-147.17;100.00;-15917.19;5071736;27;51292;-50
2023/03/05 04:42:18;;;;;;;;;27.25;24.75;;;;;-147.17;100.00;-15917.19;5071202;27;51193;-52
2023/03/05 04:44:43;;;;;;;;;25.50;24.25;;;;;-147.17;100.00;-15917.19;5073615;27;51154;-52
2023/03/05 04:47:08;;;;;;;;;15.50;12.25;;;;;-147.17;100.00;-15917.19;5068618;27;51906;-51
2023/03/05 04:49:34;;;;;;;;;20.50;18.75;;;;;-147.17;100.00;-15917.19;5070223;27;51207;-52
2023/03/05 04:51:59;;;;;;;;;26.75;20.50;;;;;-147.17;100.00;-15917.19;5071811;27;51221;-53
2023/03/05 04:54:24;;;;;;;;;12.50;11.25;;;;;-147.17;100.00;-15917.19;5071315;27;51384;-50
2023/03/05 04:56:50;;;;;;;;;19.00;17.75;;;;;-147.17;100.00;-15917.19;5069529;27;52202;-52
2023/03/05 04:59:15;;;;;;;;;15.00;11.50;;;;;-147.17;100.00;-15917.19;5071956;27;53669;-51
2023/03/05 05:01:41;;;;;;;;;17.00;17.00;;;;;-147.17;100.00;-15917.19;5069287;27;51104;-48
2023/03/05 05:04:07;;;;;;;;;18.00;17.50;;;;;-147.17;100.00;-15917.19;5072518;27;51150;-49
2023/03/05 05:06:33;;;;;;;;;16.50;16.00;;;;;-147.17;100.00;-15917.19;5070721;27;51660;-48
2023/03/05 05:08:58;;;;;;;;;21.00;20.00;;;;;-147.17;100.00;-15917.19;5070519;27;51535;-52
2023/03/05 05:11:23;;;;;;;;;19.50;16.00;;;;;-147.17;100.00;-15917.19;5071012;27;51527;-50
2023/03/05 05:13:49;;;;;;;;;21.00;17.50;;;;;-147.17;100.00;-15917.19;5072751;27;51200;-51
2023/03/05 05:16:15;;;;;;;;;21.00;19.25;;;;;-147.17;100.00;-15917.19;5068377;27;51407;-49
2023/03/05 05:18:40;;;;;;;;;23.00;20.50;;;;;-147.17;100.00;-15917.19;5070216;27;51233;-51
2023/03/05 05:21:10;;;;;;;;;17.25;16.25;;;;;-147.17;100.00;-15917.19;5071321;27;51379;-49
2023/03/05 05:23:35;;;;;;;;;14.00;14.00;;;;;-147.17;100.00;-15917.19;5069883;27;54256;-51
2023/03/05 05:26:03;;;;;;;;;20.25;19.00;;;;;-147.17;100.00;-15917.19;5071086;27;51987;-50
2023/03/05 05:28:29;;;;;;;;;13.25;12.75;;;;;-147.17;100.00;-15917.19;5070341;27;53188;-51
2023/03/05 05:30:55;;;;;;;;;17.75;17.50;;;;;-147.17;100.00;-15917.19;5070197;27;51280;-52
2023/03/05 05:33:21;;;;;;;;;18.00;17.50;;;;;-147.17;100.00;-15917.19;5069666;27;52084;-53
2023/03/05 05:35:47;;;;;;;;;16.00;16.00;;;;;-147.17;100.00;-15917.19;5070515;27;52137;-50
2023/03/05 05:38:12;;;;;;;;;17.00;16.00;;;;;-147.17;100.00;-15917.19;5069747;27;51280;-51
2023/03/05 05:40:38;;;;;;;;;18.00;18.00;;;;;-147.17;100.00;-15917.19;5070008;27;51622;-49
2023/03/05 05:43:04;;;;;;;;;12.25;11.50;;;;;-147.17;100.00;-15917.19;5070214;27;51313;-53
2023/03/05 05:45:29;;;;;;;;;18.75;18.00;;;;;-147.17;100.00;-15917.19;5069430;27;51822;-53
2023/03/05 05:47:55;;;;;;;;;16.00;15.50;;;;;-147.17;100.00;-15917.19;5072109;27;51187;-51
2023/03/05 05:50:20;;;;;;;;;18.50;17.00;;;;;-147.17;100.00;-15917.19;5069989;27;51421;-49
2023/03/05 05:52:46;;;;;;;;;10.50;8.50;;;;;-147.17;100.00;-15917.19;5070551;27;51112;-50
2023/03/05 05:55:12;;;;;;;;;22.50;19.25;;;;;-147.17;100.00;-15917.19;5070335;27;52500;-51
2023/03/05 05:57:38;;;;;;;;;18.00;16.50;;;;;-147.17;100.00;-15917.19;5071178;27;51270;-50
2023/03/05 06:00:09;;;;;;;;;16.50;14.00;;;;;-147.17;100.00;-15917.19;5070368;27;51259;-50
2023/03/05 06:02:37;;;;;;;;;16.25;14.00;;;;;-147.17;100.00;-15917.19;5070674;27;51139;-48
2023/03/05 06:05:02;;;;;;;;;17.00;13.75;;;;;-147.17;100.00;-15917.19;5070282;27;53519;-53
2023/03/05 06:07:28;;;;;;;;;11.00;10.00;;;;;-147.17;100.00;-15917.19;5086071;27;51244;-50
2023/03/05 06:09:53;;;;;;;;;16.75;13.75;;;;;-147.17;100.00;-15917.19;5069941;27;52902;-50
2023/03/05 06:12:18;;;;;;;;;18.00;16.75;;;;;-147.17;100.00;-15917.19;5069388;27;51509;-49
2023/03/05 06:14:44;;;;;;;;;17.00;16.00;;;;;-147.17;100.00;-15917.19;5070939;27;51263;-50
2023/03/05 06:17:09;;;;;;;;;15.25;12.75;;;;;-147.17;100.00;-15917.19;5070267;27;51273;-51
2023/03/05 06:19:35;;;;;;;;;15.50;14.25;;;;;-147.17;100.00;-15917.19;5068723;27;51463;-51
2023/03/05 06:22:00;;;;;;;;;17.50;15.50;;;;;-147.17;100.00;-15917.19;5070821;27;51332;-52
2023/03/05 06:24:25;;;;;;;;;15.25;12.50;;;;;-147.17;100.00;-15917.19;5069237;27;52636;-51
2023/03/05 06:26:51;;;;;;;;;12.50;11.00;;;;;-147.17;100.00;-15917.19;5069634;27;51224;-51
2023/03/05 06:29:16;;;;;;;;;13.50;12.25;;;;;-147.17;100.00;-15917.19;5069880;27;51257;-51
2023/03/05 06:31:42;;;;;;;;;16.25;14.50;;;;;-147.17;100.00;-15917.19;5069724;27;51406;-52
2023/03/05 06:34:07;;;;;;;;;14.25;14.25;;;;;-147.17;100.00;-15917.19;5068696;27;52259;-51
2023/03/05 06:36:32;;;;;;;;;15.00;12.50;;;;;-147.17;100.00;-15917.19;5069118;27;51230;-54
2023/03/05 06:38:58;;;;;;;;;18.00;18.00;;;;;-147.17;100.00;-15917.19;5071636;27;51248;-49
2023/03/05 06:41:28;;;;;;;;;18.00;17.00;;;;;-147.17;100.00;-15917.19;5069697;27;51309;-48
2023/03/05 06:43:54;;;;;;;;;20.25;18.00;;;;;-147.17;100.00;-15917.19;5070915;27;51214;-50
2023/03/05 06:46:28;;;;;;;;;15.25;15.00;;;;;-147.17;100.00;-15917.19;5065893;27;51849;-50
2023/03/05 06:48:56;;;;;;;;;16.25;15.50;;;;;-147.17;100.00;-15917.19;5068399;27;51227;-52
2023/03/05 06:51:24;;;;;;;;;22.25;20.50;;;;;-147.17;100.00;-15917.19;5068395;27;51470;-51
2023/03/05 06:53:50;;;;;;;;;15.25;15.25;;;;;-147.17;100.00;-15917.19;5068953;27;51132;-52
2023/03/05 06:56:17;;;;;;;;;20.50;17.25;;;;;-147.17;100.00;-15917.19;5069810;27;51196;-51
2023/03/05 06:58:44;;;;;;;;;16.50;15.75;;;;;-147.17;100.00;-15917.19;5069179;27;51260;-50
2023/03/05 07:01:10;;;;;;;;;19.50;18.75;;;;;-147.17;100.00;-15917.19;5067770;27;51266;-51
2023/03/05 07:03:36;;;;;;;;;19.25;17.25;;;;;-147.17;100.00;-15917.19;5070915;27;51826;-52
2023/03/05 07:06:05;;;;;;;;;18.50;18.50;;;;;-147.17;100.00;-15917.19;5069386;27;51591;-52
2023/03/05 07:08:31;;;;;;;;;20.25;17.75;;;;;-147.17;100.00;-15917.19;5068643;27;51168;-49
2023/03/05 07:10:57;;;;;;;;;19.00;17.75;;;;;-147.17;100.00;-15917.19;5069206;27;51458;-50
2023/03/05 07:13:23;;;;;;;;;22.25;20.50;;;;;-147.17;100.00;-15917.19;5067538;27;51714;-50
2023/03/05 07:15:48;;;;;;;;;20.00;18.00;;;;;-147.17;100.00;-15917.19;5067888;27;51341;-51
2023/03/05 07:18:13;;;;;;;;;21.75;18.75;;;;;-147.17;100.00;-15917.19;5068542;27;51227;-52
2023/03/05 07:20:39;;;;;;;;;21.00;18.50;;;;;-147.17;100.00;-15917.19;5068305;27;51151;-52
2023/03/05 07:23:04;;;;;;;;;24.00;20.25;;;;;-147.17;100.00;-15917.19;5070210;27;51955;-51
2023/03/05 07:25:29;;;;;;;;;22.50;19.75;;;;;-147.17;100.00;-15917.19;5064575;27;51249;-51
2023/03/05 07:27:56;;;;;;;;;28.25;22.50;;;;;-147.17;100.00;-15917.19;5068119;27;51210;-50
2023/03/05 07:30:21;;;;;;;;;23.25;18.50;;;;;-147.17;100.00;-15917.19;5069295;27;51236;-52
2023/03/05 07:32:46;;;;;;;;;24.75;22.75;;;;;-147.17;100.00;-15917.19;5074487;27;51871;-52
2023/03/05 07:35:12;;;;;;;;;21.50;19.25;;;;;-147.17;100.00;-15917.19;5072090;27;51171;-51
2023/03/05 07:37:37;;;;;;;;;19.00;17.75;;;;;-147.17;100.00;-15917.19;5070338;27;53217;-51
2023/03/05 07:40:03;;;;;;;;;27.75;24.75;;;;;-147.17;100.00;-15917.19;5072452;27;51202;-52
2023/03/05 07:42:29;;;;;;;;;29.50;26.50;;;;;-147.17;100.00;-15917.19;5087588;27;52129;-51
2023/03/05 07:44:55;;;;;;;;;24.25;21.50;;;;;-147.17;100.00;-15917.19;5071504;27;53468;-50
2023/03/05 07:47:22;;;;;;;;;30.50;24.25;;;;;-147.17;100.00;-15917.19;5072691;27;51120;-50
2023/03/05 07:49:47;;;;;;;;;28.50;28.50;;;;;-147.17;100.00;-15917.19;5071672;27;51331;-49
2023/03/05 07:52:13;;;;;;;;;27.00;26.25;;;;;-147.17;100.00;-15917.19;5073272;27;53506;-50
2023/03/05 07:54:38;;;;;;;;;28.50;24.75;;;;;-147.17;100.00;-15917.19;5071445;27;51239;-51
2023/03/05 07:57:05;;;;;;;;;27.50;26.00;;;;;-147.17;100.00;-15917.19;5072909;27;53587;-50
2023/03/05 07:59:31;;;;;;;;;26.75;23.75;;;;;-147.17;100.00;-15917.19;5072086;27;51348;-51
2023/03/05 08:01:56;;;;;;;;;23.75;23.25;;;;;-147.17;100.00;-15917.19;5070399;27;51248;-51
2023/03/05 08:04:22;;;;;;;;;24.50;22.50;;;;;-147.17;100.00;-15917.19;5071224;27;53693;-50
2023/03/05 08:06:48;;;;;;;;;28.50;26.00;;;;;-147.17;100.00;-15917.19;5069315;27;51073;-50
2023/03/05 08:09:15;;;;;;;;;32.50;28.25;;;;;-147.17;100.00;-15917.19;5072350;27;51440;-51
2023/03/05 08:11:41;;;;;;;;;22.50;19.75;;;;;-147.17;100.00;-15917.19;5069052;27;51986;-52
2023/03/05 08:14:06;;;;;;;;;26.25;23.25;;;;;-147.17;100.00;-15917.19;5070764;27;53592;-51
2023/03/05 08:16:32;;;;;;;;;27.25;24.50;;;;;-147.17;100.00;-15917.19;5069829;27;51324;-51
2023/03/05 08:18:57;;;;;;;;;27.75;25.75;;;;;-147.17;100.00;-15917.19;5069314;27;53444;-49
2023/03/05 08:21:28;;;;;;;;;23.75;18.50;;;;;-147.17;100.00;-15917.19;5071787;27;51383;-53
2023/03/05 08:23:54;;;;;;;;;27.00;24.00;;;;;-147.17;100.00;-15917.19;5071153;27;51253;-50
2023/03/05 08:26:21;;;;;;;;;31.50;27.25;;;;;-147.17;100.00;-15917.19;5071243;27;51265;-53
2023/03/05 08:28:47;;;;;;;;;30.00;29.00;;;;;-147.17;100.00;-15917.19;5072651;27;51488;-53
2023/03/05 08:31:14;;;;;;;;;27.75;24.25;;;;;-147.17;100.00;-15917.19;5071931;27;52552;-51
2023/03/05 08:33:40;;;;;;;;;25.75;21.75;;;;;-147.17;100.00;-15917.19;5073127;27;51309;-53
2023/03/05 08:36:07;;;;;;;;;27.25;23.25;;;;;-147.17;100.00;-15917.19;5070215;27;51216;-51
2023/03/05 08:38:32;;;;;;;;;20.25;20.00;;;;;-147.17;100.00;-15917.19;5071373;27;51307;-51
2023/03/05 08:40:58;;;;;;;;;25.75;23.00;;;;;-147.17;100.00;-15917.19;5074051;27;52064;-52
2023/03/05 08:43:23;;;;;;;;;26.50;24.25;;;;;-147.17;100.00;-15917.19;5070106;27;51462;-50
2023/03/05 08:45:50;;;;;;;;;28.25;24.75;;;;;-147.17;100.00;-15917.19;5067548;27;51149;-49
2023/03/05 08:48:16;;;;;;;;;25.50;24.50;;;;;-147.17;100.00;-15917.19;5072285;27;51196;-51
2023/03/05 08:50:41;;;;;;;;;24.75;23.50;;;;;-147.17;100.00;-15917.19;5069989;27;54167;-51
2023/03/05 08:53:07;;;;;;;;;28.25;24.00;;;;;-147.17;100.00;-15917.19;5072063;27;52623;-52
2023/03/05 08:55:33;;;;;;;;;27.50;26.25;;;;;-147.17;100.00;-15917.19;5070785;27;51174;-50
2023/03/05 08:57:58;;;;;;;;;29.00;25.50;;;;;-147.17;100.00;-15917.19;5071428;27;51200;-49
2023/03/05 09:00:23;;;;;;;;;27.50;23.75;;;;;-147.17;100.00;-15917.19;5070540;27;51976;-50
2023/03/05 09:02:50;;;;;;;;;25.75;24.25;;;;;-147.17;100.00;-15917.19;5070497;27;52844;-50
2023/03/05 09:05:15;;;;;;;;;27.50;25.00;;;;;-147.17;100.00;-15917.19;5071063;27;51214;-50
2023/03/05 09:07:41;;;;;;;;;24.25;24.25;;;;;-147.17;100.00;-15917.19;5073677;27;53615;-51
2023/03/05 09:10:10;;;;;;;;;23.25;22.75;;;;;-147.17;100.00;-15917.19;5068762;27;53126;-50
2023/03/05 09:12:36;;;;;;;;;25.25;23.50;;;;;-147.17;100.00;-15917.19;5068779;27;53529;-51
2023/03/05 09:15:03;;;;;;;;;29.00;25.00;;;;;-147.17;100.00;-15917.19;5069728;27;51485;-51
2023/03/05 09:17:28;;;;;;;;;24.75;22.00;;;;;-147.17;100.00;-15917.19;5050188;27;51537;-51
2023/03/05 09:19:53;;;;;;;;;30.25;23.00;;;;;-147.17;100.00;-15917.19;5070085;27;53473;-51
2023/03/05 09:22:19;;;;;;;;;26.25;23.75;;;;;-147.17;100.00;-15917.19;5069016;27;51211;-51
2023/03/05 09:24:44;;;;;;;;;19.75;18.75;;;;;-147.17;100.00;-15917.19;5070440;27;51360;-53
2023/03/05 09:27:10;;;;;;;;;28.75;25.50;;;;;-147.17;100.00;-15917.19;5069560;27;51306;-49
2023/03/05 09:29:35;;;;;;;;;27.50;25.50;;;;;-147.17;100.00;-15917.19;5069841;27;52066;-50
2023/03/05 09:32:00;;;;;;;;;25.25;23.75;;;;;-147.17;100.00;-15917.19;5068597;27;51847;-51
2023/03/05 09:34:26;;;;;;;;;20.25;18.25;;;;;-147.17;100.00;-15917.19;5069572;27;51243;-51
2023/03/05 09:36:51;;;;;;;;;13.75;13.75;;;;;-147.17;100.00;-15917.19;5069905;27;51260;-51
2023/03/05 09:39:17;;;;;;;;;18.75;16.75;;;;;-147.17;100.00;-15917.19;5069840;27;51400;-52
2023/03/05 09:42:22;;;;;;;;;15.25;14.00;;;;;-147.17;100.00;-15917.19;5069743;27;51222;-51
2023/03/05 09:45:01;;;;;;;;;16.25;14.50;;;;;-147.17;100.00;-15917.19;5069782;27;51407;-51
2023/03/05 09:48:09;;;;;;;;;14.75;13.25;;;;;-147.17;100.00;-15917.19;5069573;27;53350;-52
2023/03/05 09:50:40;;;;;;;;;14.00;14.00;;;;;-147.17;100.00;-15917.19;5069268;27;51310;-54
2023/03/05 09:53:21;;;;;;;;;19.00;14.50;;;;;-147.17;100.00;-15917.19;5069774;27;51745;-55
2023/03/05 09:55:53;;;;;;;;;18.25;16.75;;;;;-147.17;100.00;-15917.19;5069280;27;51267;-55
2023/03/05 09:58:36;;;;;;;;;19.00;17.25;;;;;-147.17;100.00;-15917.19;5071588;27;51537;-52
2023/03/05 10:01:07;;;;;;;;;17.75;16.50;;;;;-147.17;100.00;-15917.19;5067921;27;51794;-52
2023/03/05 10:03:43;;;;;;;;;14.75;13.00;;;;;-147.17;100.00;-15917.19;5068869;27;51232;-52
2023/03/05 10:06:20;;;;;;;;;15.00;15.00;;;;;-147.17;100.00;-15917.19;5069305;27;51359;-54
2023/03/05 10:08:51;;;;;;;;;16.75;13.00;;;;;-147.17;100.00;-15917.19;5068953;27;51579;-53
2023/03/05 10:11:40;;;;;;;;;19.25;16.25;;;;;-147.17;100.00;-15917.19;5068164;27;51845;-52
2023/03/05 10:14:12;;;;;;;;;17.75;16.25;;;;;-147.17;100.00;-15917.19;5067543;27;52426;-48
2023/03/05 10:17:18;;;;;;;;;14.25;13.75;;;;;-147.17;100.00;-15917.19;5069519;27;51517;-49
2023/03/05 10:19:56;;;;;;;;;12.50;12.50;;;;;-147.17;100.00;-15917.19;5068142;27;51523;-51
2023/03/05 10:22:32;;;;;;;;;14.25;13.25;;;;;-147.17;100.00;-15917.19;5067746;27;52498;-50
2023/03/05 10:25:06;;;;;;;;;19.50;17.25;;;;;-147.17;100.00;-15917.19;5069607;27;51815;-49
2023/03/05 10:27:50;;;;;;;;;18.25;16.75;;;;;-147.17;100.00;-15917.19;5068810;27;51628;-51
2023/03/05 10:30:21;;;;;;;;;18.50;17.25;;;;;-147.17;100.00;-15917.19;5071561;27;51211;-49
2023/03/05 10:33:14;;;;;;;;;20.00;19.50;;;;;-147.17;100.00;-15917.19;5069504;27;53458;-50
2023/03/05 10:36:04;;;;;;;;;18.75;17.50;;;;;-147.17;100.00;-15917.19;5065060;27;51728;-48
2023/03/05 10:39:06;;;;;;;;;22.00;20.00;;;;;-147.17;100.00;-15917.19;5069051;27;51245;-49
2023/03/05 10:41:52;;;;;;;;;36.50;30.25;;;;;-147.17;100.00;-15917.19;5070290;27;51138;-49
2023/03/05 10:44:35;;;;;;;;;19.00;16.50;;;;;-147.17;100.00;-15917.19;5068845;27;51241;-49
2023/03/05 10:47:02;;;;;;;;;10.50;10.25;;;;;-147.17;100.00;-15917.19;5072033;27;51339;-49
2023/03/05 10:49:31;;;;;;;;;20.75;18.75;;;;;-147.17;100.00;-15917.19;5067571;27;51207;-49